Time;durP1;ratioP1;P1;durP2;ratioP2;P2;SDS_P1;SDS_P2;PMS_P1;PMS_P2;Temp;Humidity;BMP_temperature;BMP_pressure;BME280_temperature;BME280_humidity;BME280_pressure;Samples;Min_cycle;Max_cycle;Signal;HPM_P1;HPM_P2
2021/07/01 00:02:03;;;;;;;24.80;21.68;;;;;;;18.93;100.00;98675.82;1677567;84;20877;-63
2021/07/01 00:04:30;;;;;;;27.98;22.27;;;;;;;18.97;100.00;98669.96;1677670;85;20839;-61
2021/07/01 00:06:58;;;;;;;;;;;;;;;19.03;100.00;98662.64;1680018;84;20945;-62
2021/07/01 00:09:25;;;;;;;31.75;23.95;;;;;;;19.08;100.00;98654.03;1677990;84;20398;-62
2021/07/01 00:11:55;;;;;;;39.53;23.40;;;;;;;19.06;100.00;98651.67;1677654;84;20969;-61
2021/07/01 00:14:23;;;;;;;28.12;24.27;;;;;;;19.06;100.00;98653.81;1677609;84;20977;-61
2021/07/01 00:16:51;;;;;;;28.85;24.43;;;;;;;19.10;100.00;98647.70;1677723;85;20926;-61
2021/07/01 00:19:19;;;;;;;25.88;22.77;;;;;;;19.11;100.00;98649.28;1677473;84;20896;-61
2021/07/01 00:21:46;;;;;;;25.52;22.55;;;;;;;19.12;100.00;98648.17;1677807;84;20849;-61
2021/07/01 00:24:13;;;;;;;27.30;23.17;;;;;;;19.13;100.00;98649.19;1677816;84;21146;-62
2021/07/01 00:26:40;;;;;;;29.40;23.07;;;;;;;19.14;100.00;98659.52;1677639;85;20850;-62
2021/07/01 00:29:07;;;;;;;27.02;23.67;;;;;;;19.06;100.00;98660.62;1677712;84;21539;-62
2021/07/01 00:31:34;;;;;;;26.90;23.80;;;;;;;19.00;100.00;98660.56;1677800;85;20937;-62
2021/07/01 00:34:01;;;;;;;30.25;24.50;;;;;;;18.98;100.00;98657.38;1677876;84;20948;-62
2021/07/01 00:36:28;;;;;;;31.60;24.67;;;;;;;18.98;100.00;98653.87;1677559;85;21138;-62
2021/07/01 00:38:55;;;;;;;31.23;24.02;;;;;;;18.99;100.00;98652.76;1677578;84;20925;-61
2021/07/01 00:41:22;;;;;;;27.32;24.43;;;;;;;19.01;100.00;98647.77;1673364;84;20966;-61
2021/07/01 00:43:50;;;;;;;;;;;;;;;19.03;100.00;98641.43;1674606;85;20895;-62
2021/07/01 00:46:17;;;;;;;29.90;22.73;;;;;;;19.05;100.00;98645.98;1650617;85;20141;-62
2021/07/01 00:48:44;;;;;;;28.10;23.07;;;;;;;19.06;100.00;98643.51;1650826;85;21125;-62
2021/07/01 00:51:12;;;;;;;25.17;22.40;;;;;;;19.10;100.00;98643.63;1671881;85;20997;-61
2021/07/01 00:53:39;;;;;;;29.35;24.20;;;;;;;19.12;100.00;98640.80;1671882;85;20864;-61
2021/07/01 00:56:07;;;;;;;27.27;22.90;;;;;;;19.12;100.00;98638.09;1671766;85;20843;-61
2021/07/01 00:58:36;;;;;;;27.32;23.77;;;;;;;19.12;100.00;98640.02;1671939;85;20962;-61
2021/07/01 01:01:05;;;;;;;24.90;21.90;;;;;;;19.10;100.00;98638.19;1671999;85;21148;-63
2021/07/01 01:03:36;;;;;;;26.80;22.40;;;;;;;19.10;100.00;98634.89;1672041;85;20942;-61
2021/07/01 01:06:06;;;;;;;27.65;22.60;;;;;;;19.09;100.00;98633.32;1671926;85;20955;-61
2021/07/01 01:08:35;;;;;;;28.47;24.18;;;;;;;19.10;100.00;98636.26;1671661;85;20944;-61
2021/07/01 01:11:02;;;;;;;25.57;22.50;;;;;;;19.08;100.00;98630.92;1671929;85;21025;-60
2021/07/01 01:13:45;;;;;;;26.20;22.75;;;;;;;19.04;100.00;98632.95;1671541;85;21148;-60
2021/07/01 01:16:30;;;;;;;;;;;;;;;19.02;100.00;98629.77;1674520;85;20899;-60
2021/07/01 01:18:57;;;;;;;30.97;22.42;;;;;;;19.01;100.00;98639.60;1672056;85;20073;-60
2021/07/01 01:21:27;;;;;;;25.82;23.10;;;;;;;19.01;100.00;98662.72;1672145;85;20982;-60
2021/07/01 01:23:55;;;;;;;27.62;24.32;;;;;;;18.99;100.00;98682.67;1671883;85;20930;-60
2021/07/01 01:26:21;;;;;;;29.02;24.82;;;;;;;19.00;100.00;98689.13;1672288;85;21498;-60
2021/07/01 01:28:49;;;;;;;29.02;22.07;;;;;;;19.00;100.00;98691.84;1671774;84;20871;-61
2021/07/01 01:31:17;;;;;;;23.62;21.05;;;;;;;18.87;100.00;98696.19;1672189;85;20867;-61
2021/07/01 01:33:44;;;;;;;25.75;21.00;;;;;;;18.70;100.00;98709.28;1671986;85;20974;-61
2021/07/01 01:36:12;;;;;;;24.75;20.75;;;;;;;18.59;100.00;98702.05;1672284;85;21037;-61
2021/07/01 01:38:39;;;;;;;26.60;20.97;;;;;;;18.52;100.00;98693.06;1672019;84;21145;-60
2021/07/01 01:41:25;;;;;;;27.45;20.88;;;;;;;18.46;100.00;98682.13;1652295;84;20940;-61
2021/07/01 01:43:52;;;;;;;23.32;20.32;;;;;;;18.40;100.00;98679.38;1655493;85;21000;-61
2021/07/01 01:46:19;;;;;;;25.23;20.55;;;;;;;18.35;100.00;98680.92;1655708;86;20896;-60
2021/07/01 01:48:53;;;;;;;21.77;19.10;;;;;;;18.30;100.00;98679.18;1655783;85;20984;-61
2021/07/01 01:51:20;;;;;;;22.93;18.82;;;;;;;18.26;100.00;98686.95;1656099;86;21085;-61
2021/07/01 01:53:47;;;;;;;24.72;18.15;;;;;;;18.21;100.00;98692.78;1656076;86;20921;-61
2021/07/01 01:56:19;;;;;;;22.60;16.73;;;;;;;18.18;100.00;98681.78;1656063;86;20932;-60
2021/07/01 01:58:47;;;;;;;20.52;16.52;;;;;;;18.17;100.00;98682.89;1605716;87;20911;-60
2021/07/01 02:01:34;;;;;;;27.37;17.60;;;;;;;18.15;100.00;98694.63;1576027;89;21076;-59
2021/07/01 02:04:04;;;;;;;20.13;16.17;;;;;;;18.14;100.00;98691.13;1579843;89;21840;-59
2021/07/01 02:06:34;;;;;;;21.60;17.37;;;;;;;18.10;100.00;98681.23;1578842;90;21014;-59
2021/07/01 02:09:02;;;;;;;19.82;15.25;;;;;;;18.08;100.00;98687.01;1579737;90;20896;-60
2021/07/01 02:11:30;;;;;;;20.57;17.50;;;;;;;18.05;100.00;98684.13;1579726;89;20869;-60
2021/07/01 02:13:58;;;;;;;;;;;;;;;18.04;100.00;98685.27;1581847;90;20935;-61
2021/07/01 02:16:44;;;;;;;24.60;16.45;;;;;;;18.02;100.00;98678.78;1578813;90;22404;-60
2021/07/01 02:19:12;;;;;;;20.10;15.20;;;;;;;18.03;100.00;98681.75;1578886;91;21043;-60
2021/07/01 02:21:39;;;;;;;22.35;16.35;;;;;;;18.05;100.00;98682.77;1578808;90;21012;-60
2021/07/01 02:24:06;;;;;;;20.53;15.77;;;;;;;18.06;100.00;98677.59;1578982;91;21411;-60
2021/07/01 02:26:35;;;;;;;19.75;15.32;;;;;;;18.07;100.00;98677.25;1578794;91;21507;-60
2021/07/01 02:29:01;;;;;;;19.55;16.48;;;;;;;18.09;100.00;98672.86;1578774;89;21160;-59
2021/07/01 02:31:31;;;;;;;19.62;15.08;;;;;;;18.13;100.00;98674.61;1579227;86;20865;-60
2021/07/01 02:33:58;;;;;;;17.98;15.18;;;;;;;18.19;100.00;98675.22;1660575;86;20926;-60
2021/07/01 02:36:26;;;;;;;19.77;14.78;;;;;;;18.23;100.00;98678.89;1630593;86;20942;-61
2021/07/01 02:39:01;;;;;;;19.60;15.05;;;;;;;18.28;100.00;98683.34;1655856;85;20851;-60
2021/07/01 02:41:27;;;;;;;25.60;15.08;;;;;;;18.31;100.00;98696.27;1636481;86;21028;-60
2021/07/01 02:43:56;;;;;;;16.50;14.50;;;;;;;18.34;100.00;98699.69;1632458;86;20883;-61
2021/07/01 02:46:41;;;;;;;17.20;14.13;;;;;;;18.38;100.00;98707.43;1632408;86;20987;-60
2021/07/01 02:49:10;;;;;;;17.77;14.98;;;;;;;18.41;100.00;98727.14;1671750;84;20923;-60
2021/07/01 02:51:37;;;;;;;17.52;15.60;;;;;;;18.41;100.00;98729.86;1672195;85;20874;-60
2021/07/01 02:54:03;;;;;;;19.25;14.33;;;;;;;18.42;100.00;98728.73;1672021;85;21049;-60
2021/07/01 02:56:40;;;;;;;16.97;15.17;;;;;;;18.44;100.00;98733.28;1672324;85;20907;-60
2021/07/01 02:58:59;;;;;;;17.15;15.30;;;;;;;18.43;100.00;98729.77;1670903;84;21358;-61
2021/07/01 03:01:28;;;;;;;20.70;15.32;;;;;;;18.43;100.00;98738.48;1668891;85;20919;-61
2021/07/01 03:03:55;;;;;;;17.23;15.48;;;;;;;18.43;100.00;98720.83;1672166;84;20926;-61
2021/07/01 03:06:22;;;;;;;20.80;14.98;;;;;;;18.42;100.00;98725.47;1671904;85;23175;-60
2021/07/01 03:08:50;;;;;;;19.57;15.67;;;;;;;18.41;100.00;98721.71;1672301;84;20923;-63
2021/07/01 03:11:16;;;;;;;18.07;14.65;;;;;;;18.45;100.00;98731.35;1672664;84;20894;-63
2021/07/01 03:13:43;;;;;;;21.23;15.20;;;;;;;18.45;100.00;98738.14;1671885;85;20978;-63
2021/07/01 03:16:15;;;;;;;;;;;;;;;18.43;100.00;98742.56;1674832;83;20953;-63
2021/07/01 03:18:42;;;;;;;22.90;16.17;;;;;;;18.42;100.00;98747.75;1672085;85;21139;-63
2021/07/01 03:21:27;;;;;;;23.57;14.47;;;;;;;18.40;100.00;98742.66;1672124;85;20871;-63
2021/07/01 03:23:56;;;;;;;15.83;14.15;;;;;;;18.42;100.00;98754.54;1671803;84;20963;-63
2021/07/01 03:26:23;;;;;;;23.22;15.60;;;;;;;18.45;100.00;98759.88;1671960;85;20934;-63
2021/07/01 03:28:50;;;;;;;20.70;14.68;;;;;;;18.46;100.00;98762.28;1672046;85;20910;-63
2021/07/01 03:31:19;;;;;;;27.55;14.63;;;;;;;18.49;100.00;98764.34;1671990;85;21205;-62
2021/07/01 03:33:46;;;;;;;18.30;14.93;;;;;;;18.52;100.00;98751.48;1672251;85;20840;-63
2021/07/01 03:36:13;;;;;;;20.95;15.43;;;;;;;18.58;100.00;98755.61;1672204;85;20879;-62
2021/07/01 03:39:02;;;;;;;17.60;15.55;;;;;;;18.72;100.00;98754.61;1653999;85;20931;-61
2021/07/01 03:41:47;;;;;;;19.50;14.90;;;;;;;18.90;100.00;98753.41;1671268;84;20891;-62
2021/07/01 03:44:15;;;;;;;17.07;14.20;;;;;;;19.21;100.00;98771.31;1672087;85;21121;-61
2021/07/01 03:46:42;;;;;;;;;;;;;;;19.35;100.00;98769.12;1674791;85;20927;-62
2021/07/01 03:49:08;;;;;;;16.42;13.32;;;;;;;19.55;100.00;98770.81;1671904;85;20116;-62
2021/07/01 03:51:54;;;;;;;16.67;12.45;;;;;;;19.76;100.00;98779.81;1671951;85;20926;-62
2021/07/01 03:54:28;;;;;;;18.40;13.05;;;;;;;19.90;100.00;98778.17;1671808;85;20926;-64
2021/07/01 03:56:57;;;;;;;13.20;11.30;;;;;;;20.00;100.00;98786.50;1671953;84;21093;-62
2021/07/01 03:59:29;;;;;;;15.10;12.58;;;;;;;20.05;100.00;98782.20;1650168;85;21469;-63
2021/07/01 04:02:14;;;;;;;20.20;12.98;;;;;;;20.50;100.00;98765.04;1671982;85;20966;-62
2021/07/01 04:04:41;;;;;;;15.32;11.83;;;;;;;20.50;100.00;98765.04;1650470;85;20951;-62
2021/07/01 04:07:08;;;;;;;17.23;12.93;;;;;;;20.57;100.00;98776.21;1672055;85;20867;-63
2021/07/01 04:09:37;;;;;;;14.63;11.22;;;;;;;20.48;100.00;98785.84;1672028;85;20953;-62
2021/07/01 04:12:22;;;;;;;14.35;11.10;;;;;;;20.61;100.00;98779.86;1671887;85;21013;-61
2021/07/01 04:14:59;;;;;;;17.03;12.03;;;;;;;20.74;100.00;98770.55;1668497;85;20867;-62
2021/07/01 04:17:30;;;;;;;15.30;10.90;;;;;;;20.85;100.00;98774.17;1668639;84;21303;-61
2021/07/01 04:20:15;;;;;;;11.30;9.58;;;;;;;20.92;100.00;98783.41;1672010;85;21392;-62
2021/07/01 04:22:55;;;;;;;16.20;10.20;;;;;;;21.05;100.00;98782.04;1604021;88;21146;-62
2021/07/01 04:25:50;;;;;;;12.07;9.78;;;;;;;21.07;100.00;98790.66;1603758;89;20946;-62
2021/07/01 04:28:12;;;;;;;13.00;10.05;;;;;;;21.17;100.00;98790.22;1603952;88;21088;-61
2021/07/01 04:30:39;;;;;;;12.15;9.05;;;;;;;21.39;100.00;98797.94;1603709;88;21077;-61
2021/07/01 04:33:07;;;;;;;11.00;8.45;;;;;;;21.61;100.00;98798.01;1601952;87;21057;-62
2021/07/01 04:35:34;;;;;;;12.47;8.08;;;;;;;21.70;100.00;98797.06;1623168;87;21388;-63
2021/07/01 04:38:03;;;;;;;10.60;7.95;;;;;;;21.85;100.00;98788.13;1626672;88;21057;-62
2021/07/01 04:40:33;;;;;;;12.88;8.13;;;;;;;21.93;100.00;98788.56;1626850;88;21137;-62
2021/07/01 04:42:59;;;;;;;13.58;8.20;;;;;;;22.04;100.00;98780.66;1625012;87;21021;-63
2021/07/01 04:45:27;;;;;;;11.63;7.65;;;;;;;22.17;100.00;98777.28;1624918;88;21401;-62
2021/07/01 04:47:54;;;;;;;;;;;;;;;22.38;100.00;98779.83;1627464;88;21125;-62
2021/07/01 04:50:22;;;;;;;;;;;;;;;22.36;100.00;98783.48;1627227;88;21596;-62
2021/07/01 04:52:59;;;;;;;7.33;6.62;;;;;;;22.19;100.00;98780.47;1597796;88;20152;-63
2021/07/01 04:55:31;;;;;;;10.80;7.62;;;;;;;22.35;100.00;98780.54;1620529;88;20969;-63
2021/07/01 04:58:16;;;;;;;12.90;7.00;;;;;;;22.62;100.00;98775.56;1639952;84;20897;-64
2021/07/01 05:00:47;;;;;;;11.38;8.05;;;;;;;22.46;100.00;98784.33;1672997;84;21055;-62
2021/07/01 05:03:34;;;;;;;10.35;7.58;;;;;;;22.57;100.00;98789.50;1613327;87;21028;-63
2021/07/01 05:06:03;;;;;;;8.80;7.80;;;;;;;22.88;100.00;98796.10;1612198;87;21010;-63
2021/07/01 05:08:32;;;;;;;13.80;8.58;;;;;;;23.00;100.00;98800.72;1611338;87;20986;-63
2021/07/01 05:10:59;;;;;;;10.15;7.83;;;;;;;22.96;100.00;98804.72;1611520;87;21519;-63
2021/07/01 05:13:25;;;;;;;10.70;8.50;;;;;;;23.10;100.00;98804.28;1611653;87;21147;-63
2021/07/01 05:15:53;;;;;;;10.32;7.42;;;;;;;23.01;100.00;98805.06;1610829;87;21490;-64
2021/07/01 05:18:21;;;;;;;10.72;6.97;;;;;;;23.06;100.00;98806.95;1570501;90;20980;-63
2021/07/01 05:20:53;;;;;;;12.03;7.72;;;;;;;23.10;100.00;98803.73;1577530;89;21195;-64
2021/07/01 05:23:37;;;;;;;10.75;7.47;;;;;;;23.26;100.00;98808.38;1590829;88;20922;-63
2021/07/01 05:26:22;;;;;;;16.70;7.55;;;;;;;23.44;100.00;98811.50;1606129;88;21157;-63
2021/07/01 05:29:08;;;;;;;13.72;8.98;;;;;;;23.55;100.00;98809.80;1613010;87;21098;-63
2021/07/01 05:31:54;;;;;;;14.87;8.43;;;;;;;23.83;100.00;98818.42;1613364;87;20992;-63
2021/07/01 05:34:29;;;;;;;9.88;7.90;;;;;;;24.01;100.00;98818.78;1621548;85;21008;-63
2021/07/01 05:36:55;;;;;;;10.38;7.67;;;;;;;23.91;100.00;98822.89;1669303;85;20999;-63
2021/07/01 05:39:24;;;;;;;10.08;7.35;;;;;;;23.92;100.00;98825.28;1704653;84;21264;-63
2021/07/01 05:41:50;;;;;;;12.85;7.95;;;;;;;23.88;100.00;98829.09;1671921;84;21008;-62
2021/07/01 05:44:17;;;;;;;12.68;7.50;;;;;;;23.82;100.00;98824.48;1698792;84;21388;-63
2021/07/01 05:46:45;;;;;;;14.58;6.37;;;;;;;23.89;100.00;98822.48;1682655;82;20882;-63
2021/07/01 05:49:13;;;;;;;9.03;6.10;;;;;;;23.93;100.00;98834.29;1652825;86;21000;-63
2021/07/01 05:51:40;;;;;;;7.78;5.78;;;;;;;23.74;100.00;98828.24;1645684;87;21331;-63
2021/07/01 05:56:49;;;;;;;11.18;6.05;;;;;;;23.81;100.00;98834.42;1665192;85;20862;-60
2021/07/01 05:59:16;;;;;;;6.12;5.53;;;;;;;23.98;100.00;98835.95;1650164;86;20989;-61
2021/07/01 06:01:43;;;;;;;7.08;5.92;;;;;;;24.22;100.00;98837.02;1669918;85;20993;-60
2021/07/01 06:04:13;;;;;;;9.00;6.35;;;;;;;24.45;100.00;98831.59;1669805;85;21075;-60
2021/07/01 06:06:58;;;;;;;9.00;5.28;;;;;;;24.38;100.00;98826.77;1669293;85;21108;-61
2021/07/01 06:09:30;;;;;;;13.35;6.58;;;;;;;24.60;100.00;98823.86;1669659;85;21428;-61
2021/07/01 06:11:59;;;;;;;10.20;6.08;;;;;;;24.79;100.00;98827.69;1669862;86;20998;-62
2021/07/01 06:14:27;;;;;;;7.40;5.00;;;;;;;25.00;100.00;98815.69;1669857;86;20978;-62
2021/07/01 06:17:03;;;;;;;8.25;4.72;;;;;;;25.27;100.00;98810.83;1642327;85;21406;-62
2021/07/01 06:19:26;;;;;;;6.50;4.33;;;;;;;25.33;100.00;98814.27;1634905;86;20997;-62
2021/07/01 06:21:53;;;;;;;8.23;4.53;;;;;;;25.57;100.00;98810.27;1632316;88;21020;-63
2021/07/01 06:24:19;;;;;;;6.20;3.92;;;;;;;25.81;100.00;98810.38;1637160;85;20974;-62
2021/07/01 06:30:47;;;;;;;9.00;5.55;;;;;;;25.53;95.79;98814.13;1699045;84;21038;-62
2021/07/01 06:37:13;;;;;;;6.10;3.40;;;;;;;26.02;95.44;98811.26;1698897;84;20910;-62
2021/07/01 06:47:58;;;;;;;4.00;3.42;;;;;;;26.78;85.07;98805.95;1688932;85;21119;-62
2021/07/01 06:51:25;;;;;;;6.20;3.30;;;;;;;27.18;85.70;98800.73;1689137;85;20957;-63
2021/07/01 06:53:54;;;;;;;7.42;3.22;;;;;;;27.47;81.22;98805.27;1684628;83;21422;-62
2021/07/01 07:00:33;;;;;;;5.70;3.05;;;;;;;27.92;74.46;98781.07;1715257;83;21006;-62
2021/07/01 07:06:59;;;;;;;6.30;3.25;;;;;;;27.62;74.41;98780.55;1715086;83;20865;-63
2021/07/01 07:13:26;;;;;;;7.00;3.60;;;;;;;28.03;71.75;98777.55;1715292;83;21497;-62
2021/07/01 07:19:52;;;;;;;5.45;2.60;;;;;;;27.40;71.00;98779.05;1715127;83;20913;-62
2021/07/01 07:26:21;;;;;;;4.35;2.98;;;;;;;27.56;68.94;98768.52;1715090;83;20900;-62
2021/07/01 07:32:47;;;;;;;5.15;2.65;;;;;;;28.28;71.86;98763.84;1714988;83;21482;-63
2021/07/01 07:39:13;;;;;;;5.28;2.75;;;;;;;27.65;72.14;98762.62;1714915;83;21490;-63
2021/07/01 07:45:41;;;;;;;7.08;2.92;;;;;;;27.92;72.07;98764.52;1714907;83;21498;-62
2021/07/01 07:52:11;;;;;;;3.42;2.55;;;;;;;28.32;64.32;98770.12;1717251;82;21014;-62
2021/07/01 07:58:46;;;;;;;4.83;2.47;;;;;;;28.14;65.39;98768.13;1730214;83;20970;-64
2021/07/01 08:05:20;;;;;;;4.80;2.75;;;;;;;28.19;62.62;98758.69;1730326;83;21469;-64
2021/07/01 08:11:47;;;;;;;5.15;3.12;;;;;;;28.03;63.85;98754.11;1730328;83;20951;-64
2021/07/01 08:18:41;;;;;;;9.63;3.20;;;;;;;29.27;61.60;98759.48;1701141;84;20982;-63
2021/07/01 08:25:09;;;;;;;6.35;2.80;;;;;;;29.68;60.15;98750.09;1721960;83;20908;-62
2021/07/01 08:31:35;;;;;;;4.67;2.87;;;;;;;28.25;65.74;98747.47;1705316;84;20970;-63
2021/07/01 08:38:04;;;;;;;7.50;3.27;;;;;;;28.50;64.12;98738.45;1705671;84;20919;-62
2021/07/01 08:44:44;;;;;;;4.53;3.25;;;;;;;28.68;63.34;98735.69;1705589;84;20934;-62
2021/07/01 08:51:10;;;;;;;8.45;2.87;;;;;;;29.46;62.40;98725.86;1705073;84;20958;-63
2021/07/01 08:57:36;;;;;;;4.37;2.98;;;;;;;29.28;59.53;98738.38;1697952;84;21077;-64
2021/07/01 09:04:03;;;;;;;4.08;2.80;;;;;;;29.39;64.62;98725.89;1697378;84;20991;-64
2021/07/01 09:10:31;;;;;;;4.40;2.80;;;;;;;29.58;58.83;98719.11;1697308;84;20935;-62
2021/07/01 09:17:00;;;;;;;10.63;3.30;;;;;;;29.23;60.93;98715.30;1697509;84;21213;-63
2021/07/01 09:23:26;;;;;;;5.20;2.87;;;;;;;29.45;60.18;98706.34;1697724;84;20931;-62
2021/07/01 09:29:54;;;;;;;7.22;3.20;;;;;;;29.02;57.70;98711.17;1697724;84;21633;-61
2021/07/01 09:36:24;;;;;;;7.70;3.08;;;;;;;29.48;60.10;98713.03;1697540;84;20979;-62
2021/07/01 09:42:53;;;;;;;7.15;2.90;;;;;;;29.69;59.70;98706.63;1697942;84;21419;-63
2021/07/01 09:49:21;;;;;;;78.45;9.68;;;;;;;28.89;58.33;98707.27;1697658;84;20908;-60
2021/07/01 09:59:28;;;;;;;8.23;3.20;;;;;;;29.19;61.05;98696.55;1685114;85;20469;-60
2021/07/01 10:05:54;;;;;;;7.30;3.60;;;;;;;29.19;60.84;98695.77;1685089;85;21521;-61
2021/07/01 10:12:26;;;;;;;5.87;3.65;;;;;;;29.48;61.67;98692.30;1685190;85;20983;-62
2021/07/01 10:18:51;;;;;;;9.65;4.12;;;;;;;28.87;63.07;98670.38;1685362;85;20901;-61
2021/07/01 10:25:17;;;;;;;6.47;3.65;;;;;;;29.00;62.31;98676.25;1685207;85;20922;-61
2021/07/01 10:31:55;;;;;;;7.30;3.08;;;;;;;29.55;60.87;98675.69;1685285;85;20956;-62
2021/07/01 10:38:22;;;;;;;7.87;3.15;;;;;;;29.79;57.23;98671.81;1685193;85;20928;-61
2021/07/01 10:44:48;;;;;;;12.82;4.03;;;;;;;29.93;60.97;98678.64;1685178;85;20924;-61
2021/07/01 10:47:31;;;;;;;9.08;3.25;;;;;;;30.16;58.13;98680.87;1682284;84;20975;-61
2021/07/01 10:49:59;;;;;;;7.90;2.98;;;;;;;30.51;57.09;98685.34;1691706;83;21173;-61
2021/07/01 10:52:41;;;;;;;10.18;2.90;;;;;;;30.59;53.26;98683.89;1737839;82;20924;-61
2021/07/01 10:55:09;;;;;;;8.45;2.72;;;;;;;30.71;57.34;98682.00;1738998;82;21324;-62
2021/07/01 10:57:36;;;;;;;5.50;2.33;;;;;;;30.25;53.73;98682.59;1679517;83;21041;-63
2021/07/01 11:00:05;;;;;;;8.73;2.95;;;;;;;29.81;52.08;98681.87;1726842;82;20983;-62
2021/07/01 11:02:32;;;;;;;7.85;3.00;;;;;;;29.77;54.48;98672.84;1722565;82;21105;-62
2021/07/01 11:05:03;;;;;;;8.38;2.80;;;;;;;29.62;54.27;98677.03;1726738;82;21402;-63
2021/07/01 11:07:45;;;;;;;6.08;3.05;;;;;;;30.01;54.60;98679.38;1724868;82;21013;-62
2021/07/01 11:10:12;;;;;;;9.55;3.27;;;;;;;29.89;52.73;98672.37;1728355;82;20945;-61
2021/07/01 11:12:47;;;;;;;11.03;3.40;;;;;;;30.02;55.34;98672.67;1724946;82;21370;-61
2021/07/01 11:15:14;;;;;;;9.10;2.75;;;;;;;30.24;54.63;98671.31;1724254;82;21111;-61
2021/07/01 11:17:44;;;;;;;11.68;3.42;;;;;;;30.67;54.00;98670.16;1725137;82;21280;-62
2021/07/01 11:20:21;;;;;;;7.30;3.12;;;;;;;30.79;53.31;98669.64;1727499;82;21154;-62
2021/07/01 11:22:55;;;;;;;10.15;3.33;;;;;;;30.75;51.96;98671.08;1727126;82;20927;-62
2021/07/01 11:25:29;;;;;;;7.95;3.08;;;;;;;30.52;55.30;98663.38;1710479;82;21254;-61
2021/07/01 11:28:15;;;;;;;7.42;3.25;;;;;;;30.52;55.60;98652.90;1720106;82;21728;-62
2021/07/01 11:30:52;;;;;;;7.45;2.80;;;;;;;30.81;55.83;98652.02;1710300;84;20994;-62
2021/07/01 11:33:19;;;;;;;8.63;3.60;;;;;;;30.27;55.24;98641.45;1710488;84;20851;-61
2021/07/01 11:35:48;;;;;;;11.10;3.25;;;;;;;30.21;54.73;98647.83;1718341;81;21011;-61
2021/07/01 11:38:30;;;;;;;8.20;2.90;;;;;;;30.24;56.65;98645.02;1730573;81;21434;-60
2021/07/01 11:41:00;;;;;;;6.05;3.02;;;;;;;30.31;54.47;98628.98;1727964;83;23250;-60
2021/07/01 11:43:27;;;;;;;10.35;3.45;;;;;;;30.20;55.24;98629.63;1730810;81;20986;-63
2021/07/01 11:45:56;;;;;;;9.53;3.12;;;;;;;30.28;56.62;98634.74;1706430;82;20915;-62
2021/07/01 11:48:24;;;;;;;7.70;3.20;;;;;;;30.43;54.50;98634.02;1680877;84;20900;-62
2021/07/01 11:50:52;;;;;;;9.68;3.52;;;;;;;30.77;55.00;98634.64;1697957;83;21323;-60
2021/07/01 11:53:20;;;;;;;7.10;3.60;;;;;;;30.92;57.29;98634.72;1710528;84;21114;-60
2021/07/01 11:55:50;;;;;;;7.80;3.70;;;;;;;30.83;55.50;98628.09;1695917;84;20971;-61
2021/07/01 11:58:16;;;;;;;7.47;3.20;;;;;;;30.95;55.53;98625.58;1688630;83;20971;-60
2021/07/01 12:00:43;;;;;;;10.30;3.80;;;;;;;30.94;56.88;98616.28;1688201;83;20891;-61
2021/07/01 12:03:10;;;;;;;11.05;3.60;;;;;;;31.06;57.72;98620.50;1688081;85;20895;-61
2021/07/01 12:09:41;;;;;;;9.43;3.45;;;;;;;30.76;59.15;98621.39;1687922;85;20951;-62
2021/07/01 12:16:16;;;;;;;7.83;3.08;;;;;;;30.77;57.01;98618.02;1687824;85;20868;-60
2021/07/01 12:22:46;;;;;;;7.47;3.30;;;;;;;30.92;57.40;98621.47;1688038;85;21406;-61
2021/07/01 12:29:22;;;;;;;4.50;2.65;;;;;;;30.72;52.81;98621.25;1687993;85;20998;-63
2021/07/01 12:35:49;;;;;;;8.35;2.80;;;;;;;29.97;51.74;98617.17;1687997;85;20919;-61
2021/07/01 12:42:19;;;;;;;7.97;3.20;;;;;;;30.00;58.60;98616.95;1687965;85;20923;-60
2021/07/01 12:48:46;;;;;;;6.05;3.10;;;;;;;30.25;60.95;98614.00;1687975;85;20931;-60
2021/07/01 12:55:22;;;;;;;6.97;2.60;;;;;;;30.42;60.55;98616.42;1686315;85;42698;-60
2021/07/01 13:01:48;;;;;;;5.60;2.25;;;;;;;30.20;56.91;98621.33;1677622;85;20908;-61
2021/07/01 13:08:14;;;;;;;12.13;2.70;;;;;;;30.04;55.88;98617.12;1677258;85;20951;-59
2021/07/01 13:14:41;;;;;;;6.53;2.80;;;;;;;30.38;53.77;98627.54;1677509;85;20907;-59
2021/07/01 13:18:03;;;;;;;6.33;3.05;;;;;;;30.30;52.56;98618.48;1677739;85;20976;-59
2021/07/01 13:20:30;;;;;;;7.12;2.47;;;;;;;30.24;53.78;98607.66;1677005;84;20936;-63
2021/07/01 13:22:56;;;;;;;8.27;2.50;;;;;;;29.95;51.65;98613.24;1677467;84;20987;-63
2021/07/01 13:25:25;;;;;;;5.83;2.23;;;;;;;30.05;49.18;98610.98;1677914;85;21229;-63
2021/07/01 13:27:59;;;;;;;6.40;2.10;;;;;;;30.05;49.18;98610.98;1688817;84;21429;-63
2021/07/01 13:30:39;;;;;;;3.72;1.82;;;;;;;29.94;48.75;98614.42;1698036;84;20987;-63
2021/07/01 13:33:12;;;;;;;5.08;2.00;;;;;;;29.60;48.73;98621.34;1698441;83;20922;-63
2021/07/01 13:35:44;;;;;;;12.53;2.40;;;;;;;29.57;46.84;98622.16;1686630;84;21377;-63
2021/07/01 13:38:12;;;;;;;3.83;1.98;;;;;;;29.62;48.77;98620.36;1702087;84;21697;-63
2021/07/01 13:40:42;;;;;;;5.83;2.17;;;;;;;29.57;47.89;98618.02;1702006;84;20931;-63
2021/07/01 13:43:14;;;;;;;9.05;2.10;;;;;;;29.66;50.52;98618.36;1715059;82;20903;-63
2021/07/01 13:45:43;;;;;;;7.10;2.67;;;;;;;29.80;52.06;98617.49;1715308;82;20888;-63
2021/07/01 13:48:24;;;;;;;5.15;2.33;;;;;;;30.11;50.71;98616.28;1717007;82;20988;-62
2021/07/01 13:50:54;;;;;;;7.95;2.45;;;;;;;30.51;50.45;98618.89;1711973;83;21130;-61
2021/07/01 13:53:24;;;;;;;10.05;2.52;;;;;;;30.36;50.83;98612.53;1705834;83;21014;-61
2021/07/01 13:56:00;;;;;;;10.80;2.37;;;;;;;29.90;51.08;98613.86;1687009;84;20984;-61
2021/07/01 13:58:29;;;;;;;9.38;2.72;;;;;;;29.93;52.15;98610.09;1706230;83;21058;-63
2021/07/01 14:00:58;;;;;;;11.78;2.70;;;;;;;29.78;53.94;98617.11;1698040;84;21053;-63
2021/07/01 14:03:30;;;;;;;6.08;2.55;;;;;;;29.92;53.17;98610.70;1706082;83;21132;-63
2021/07/01 14:06:07;;;;;;;8.13;3.05;;;;;;;29.80;54.23;98607.03;1721649;83;20948;-63
2021/07/01 14:08:41;;;;;;;5.92;2.83;;;;;;;29.50;55.71;98608.38;1697285;83;20970;-64
2021/07/01 14:11:15;;;;;;;8.70;3.70;;;;;;;29.60;57.04;98603.98;1690026;84;20987;-62
2021/07/01 14:13:48;;;;;;;12.23;3.70;;;;;;;29.55;56.49;98612.70;1690405;84;20935;-62
2021/07/01 14:16:19;;;;;;;9.33;3.37;;;;;;;29.26;59.40;98603.18;1690232;84;20960;-63
2021/07/01 14:18:51;;;;;;;9.25;3.40;;;;;;;29.11;59.53;98603.06;1696227;83;21385;-62
2021/07/01 14:21:17;;;;;;;12.45;3.20;;;;;;;29.03;59.33;98589.81;1691602;83;20967;-61
2021/07/01 14:23:44;;;;;;;9.40;4.07;;;;;;;28.74;59.58;98595.47;1690664;85;21045;-59
2021/07/01 14:26:15;;;;;;;8.03;3.52;;;;;;;28.98;59.84;98595.77;1695611;84;21425;-59
2021/07/01 14:28:42;;;;;;;12.28;3.02;;;;;;;29.25;58.77;98596.06;1709476;83;21131;-59
2021/07/01 14:31:10;;;;;;;10.63;3.85;;;;;;;29.71;57.89;98607.47;1721554;83;20922;-60
2021/07/01 14:33:44;;;;;;;12.05;3.95;;;;;;;29.73;57.55;98601.55;1698137;84;20958;-59
2021/07/01 14:36:24;;;;;;;19.52;4.47;;;;;;;29.40;59.14;98596.20;1693887;83;20958;-58
2021/07/01 14:39:03;;;;;;;11.40;3.85;;;;;;;29.38;60.43;98603.32;1690374;83;20967;-59
2021/07/01 14:41:34;;;;;;;19.25;4.35;;;;;;;29.75;59.65;98600.55;1690543;85;21334;-60
2021/07/01 14:44:20;;;;;;;14.20;4.45;;;;;;;30.04;59.90;98598.35;1690106;84;20915;-61
2021/07/01 14:46:50;;;;;;;14.68;4.03;;;;;;;30.05;58.67;98592.39;1690411;84;20975;-61
2021/07/01 14:49:36;;;;;;;14.15;4.17;;;;;;;30.15;59.52;98595.48;1690133;84;21405;-61
2021/07/01 14:52:07;;;;;;;10.90;3.50;;;;;;;30.31;58.95;98599.31;1690442;85;20982;-62
2021/07/01 14:54:43;;;;;;;9.33;3.55;;;;;;;30.29;57.48;98604.47;1690245;85;21141;-61
2021/07/01 14:57:13;;;;;;;16.82;4.53;;;;;;;30.29;57.18;98596.77;1690666;84;21225;-62
2021/07/01 14:59:57;;;;;;;13.13;3.50;;;;;;;30.41;53.90;98597.64;1691743;83;20911;-61
2021/07/01 15:02:35;;;;;;;10.60;3.52;;;;;;;30.40;52.90;98600.81;1691768;84;21053;-61
2021/07/01 15:05:15;;;;;;;12.95;4.20;;;;;;;30.17;50.25;98602.78;1691888;84;20923;-61
2021/07/01 15:07:50;;;;;;;17.20;3.95;;;;;;;30.22;49.10;98598.19;1692043;83;21059;-62
2021/07/01 15:10:21;;;;;;;12.47;4.40;;;;;;;30.48;49.60;98600.95;1691883;83;21010;-62